sensor_id;sensor_type;location;lat;lon;timestamp;P1;durP1;ratioP1;P2;durP2;ratioP2
63193;SDS011;49289;51.670;5.624;2023-03-22T00:01:13;7.10;;;3.30;;
63193;SDS011;49289;51.670;5.624;2023-03-22T00:03:01;5.30;;;3.20;;
63193;SDS011;49289;51.670;5.624;2023-03-22T00:04:48;6.00;;;3.00;;
63193;SDS011;49289;51.670;5.624;2023-03-22T00:06:36;5.90;;;3.20;;
63193;SDS011;49289;51.670;5.624;2023-03-22T00:08:24;6.00;;;3.40;;
63193;SDS011;49289;51.670;5.624;2023-03-22T00:10:13;5.50;;;3.20;;
63193;SDS011;49289;51.670;5.624;2023-03-22T00:12:00;6.30;;;3.50;;
63193;SDS011;49289;51.670;5.624;2023-03-22T00:13:48;6.10;;;3.50;;
63193;SDS011;49289;51.670;5.624;2023-03-22T00:15:37;4.90;;;3.20;;
63193;SDS011;49289;51.670;5.624;2023-03-22T00:17:24;7.50;;;3.60;;
63193;SDS011;49289;51.670;5.624;2023-03-22T00:19:11;8.10;;;3.30;;
63193;SDS011;49289;51.670;5.624;2023-03-22T00:20:58;7.50;;;3.10;;
63193;SDS011;49289;51.670;5.624;2023-03-22T00:22:45;6.80;;;3.00;;
63193;SDS011;49289;51.670;5.624;2023-03-22T00:24:32;7.00;;;3.20;;
63193;SDS011;49289;51.670;5.624;2023-03-22T00:26:19;5.10;;;2.90;;
63193;SDS011;49289;51.670;5.624;2023-03-22T00:28:06;5.50;;;3.30;;
63193;SDS011;49289;51.670;5.624;2023-03-22T00:29:56;4.90;;;3.30;;
63193;SDS011;49289;51.670;5.624;2023-03-22T00:31:44;7.00;;;3.30;;
63193;SDS011;49289;51.670;5.624;2023-03-22T00:33:32;5.90;;;3.10;;
63193;SDS011;49289;51.670;5.624;2023-03-22T00:35:19;7.80;;;3.50;;
63193;SDS011;49289;51.670;5.624;2023-03-22T00:37:06;5.60;;;3.30;;
63193;SDS011;49289;51.670;5.624;2023-03-22T00:38:53;6.80;;;3.50;;
63193;SDS011;49289;51.670;5.624;2023-03-22T00:40:40;6.00;;;3.20;;
63193;SDS011;49289;51.670;5.624;2023-03-22T00:42:28;6.20;;;3.00;;
63193;SDS011;49289;51.670;5.624;2023-03-22T00:44:16;7.10;;;3.60;;
63193;SDS011;49289;51.670;5.624;2023-03-22T00:46:04;10.00;;;3.70;;
63193;SDS011;49289;51.670;5.624;2023-03-22T00:47:51;8.50;;;3.10;;
63193;SDS011;49289;51.670;5.624;2023-03-22T00:49:38;6.80;;;3.10;;
63193;SDS011;49289;51.670;5.624;2023-03-22T00:51:25;5.60;;;3.30;;
63193;SDS011;49289;51.670;5.624;2023-03-22T00:53:12;6.30;;;3.10;;
63193;SDS011;49289;51.670;5.624;2023-03-22T00:54:59;7.90;;;3.60;;
63193;SDS011;49289;51.670;5.624;2023-03-22T00:56:47;7.30;;;3.20;;
63193;SDS011;49289;51.670;5.624;2023-03-22T00:58:34;6.40;;;3.20;;
63193;SDS011;49289;51.670;5.624;2023-03-22T01:00:22;8.70;;;3.50;;
63193;SDS011;49289;51.670;5.624;2023-03-22T01:02:10;8.70;;;3.80;;
63193;SDS011;49289;51.670;5.624;2023-03-22T01:03:56;5.40;;;3.50;;
63193;SDS011;49289;51.670;5.624;2023-03-22T01:05:44;7.10;;;3.30;;
63193;SDS011;49289;51.670;5.624;2023-03-22T01:07:32;6.60;;;3.30;;
63193;SDS011;49289;51.670;5.624;2023-03-22T01:09:20;6.80;;;3.80;;
63193;SDS011;49289;51.670;5.624;2023-03-22T01:11:09;6.80;;;3.60;;
63193;SDS011;49289;51.670;5.624;2023-03-22T01:12:57;6.00;;;3.10;;
63193;SDS011;49289;51.670;5.624;2023-03-22T01:14:45;9.30;;;4.00;;
63193;SDS011;49289;51.670;5.624;2023-03-22T01:16:32;7.20;;;4.00;;
63193;SDS011;49289;51.670;5.624;2023-03-22T01:18:19;7.70;;;4.00;;
63193;SDS011;49289;51.670;5.624;2023-03-22T01:20:06;5.70;;;3.30;;
63193;SDS011;49289;51.670;5.624;2023-03-22T01:21:54;6.80;;;3.80;;
63193;SDS011;49289;51.670;5.624;2023-03-22T01:23:41;7.10;;;3.70;;
63193;SDS011;49289;51.670;5.624;2023-03-22T01:25:28;8.00;;;3.80;;
63193;SDS011;49289;51.670;5.624;2023-03-22T01:27:15;8.90;;;3.90;;
63193;SDS011;49289;51.670;5.624;2023-03-22T01:29:02;9.00;;;4.10;;
63193;SDS011;49289;51.670;5.624;2023-03-22T01:30:49;5.90;;;3.60;;
63193;SDS011;49289;51.670;5.624;2023-03-22T01:32:36;7.80;;;3.90;;
63193;SDS011;49289;51.670;5.624;2023-03-22T01:34:23;6.70;;;3.90;;
63193;SDS011;49289;51.670;5.624;2023-03-22T01:36:11;8.20;;;3.80;;
63193;SDS011;49289;51.670;5.624;2023-03-22T01:37:58;10.20;;;4.50;;
63193;SDS011;49289;51.670;5.624;2023-03-22T01:39:43;11.00;;;4.20;;
63193;SDS011;49289;51.670;5.624;2023-03-22T01:41:30;9.50;;;4.30;;
63193;SDS011;49289;51.670;5.624;2023-03-22T01:43:17;9.00;;;4.60;;
63193;SDS011;49289;51.670;5.624;2023-03-22T01:47:19;7.40;;;4.10;;
63193;SDS011;49289;51.670;5.624;2023-03-22T01:49:07;9.60;;;4.40;;
63193;SDS011;49289;51.670;5.624;2023-03-22T01:50:55;10.60;;;4.60;;
63193;SDS011;49289;51.670;5.624;2023-03-22T01:52:43;11.70;;;4.70;;
63193;SDS011;49289;51.670;5.624;2023-03-22T01:54:31;9.40;;;4.60;;
63193;SDS011;49289;51.670;5.624;2023-03-22T01:56:17;8.30;;;4.80;;
63193;SDS011;49289;51.670;5.624;2023-03-22T01:58:04;11.10;;;5.20;;
63193;SDS011;49289;51.670;5.624;2023-03-22T01:59:51;9.10;;;4.80;;
63193;SDS011;49289;51.670;5.624;2023-03-22T02:01:38;10.60;;;5.40;;
63193;SDS011;49289;51.670;5.624;2023-03-22T02:03:27;10.10;;;5.10;;
63193;SDS011;49289;51.670;5.624;2023-03-22T02:05:16;9.50;;;4.80;;
63193;SDS011;49289;51.670;5.624;2023-03-22T02:07:05;9.00;;;5.10;;
63193;SDS011;49289;51.670;5.624;2023-03-22T02:08:52;8.60;;;5.30;;
63193;SDS011;49289;51.670;5.624;2023-03-22T02:10:40;9.20;;;5.20;;
63193;SDS011;49289;51.670;5.624;2023-03-22T02:12:30;9.30;;;5.50;;
63193;SDS011;49289;51.670;5.624;2023-03-22T02:14:19;12.60;;;6.20;;
63193;SDS011;49289;51.670;5.624;2023-03-22T02:16:14;10.00;;;6.00;;
63193;SDS011;49289;51.670;5.624;2023-03-22T02:18:07;9.40;;;6.20;;
63193;SDS011;49289;51.670;5.624;2023-03-22T02:20:17;10.20;;;5.90;;
63193;SDS011;49289;51.670;5.624;2023-03-22T02:26:49;8.40;;;6.90;;
63193;SDS011;49289;51.670;5.624;2023-03-22T02:28:52;12.30;;;6.90;;
63193;SDS011;49289;51.670;5.624;2023-03-22T02:30:53;13.20;;;7.20;;
63193;SDS011;49289;51.670;5.624;2023-03-22T02:32:52;11.20;;;7.20;;
63193;SDS011;49289;51.670;5.624;2023-03-22T02:34:58;11.30;;;7.10;;
63193;SDS011;49289;51.670;5.624;2023-03-22T02:37:18;10.70;;;7.00;;
63193;SDS011;49289;51.670;5.624;2023-03-22T02:39:30;9.20;;;6.90;;
63193;SDS011;49289;51.670;5.624;2023-03-22T02:41:20;11.60;;;7.20;;
63193;SDS011;49289;51.670;5.624;2023-03-22T02:43:09;11.80;;;7.10;;
63193;SDS011;49289;51.670;5.624;2023-03-22T02:44:57;11.70;;;7.10;;
63193;SDS011;49289;51.670;5.624;2023-03-22T02:46:44;11.10;;;6.90;;
63193;SDS011;49289;51.670;5.624;2023-03-22T02:48:33;9.50;;;6.80;;
63193;SDS011;49289;51.670;5.624;2023-03-22T02:50:20;10.30;;;7.10;;
63193;SDS011;49289;51.670;5.624;2023-03-22T02:52:09;9.60;;;7.00;;
63193;SDS011;49289;51.670;5.624;2023-03-22T02:53:57;10.10;;;6.70;;
63193;SDS011;49289;51.670;5.624;2023-03-22T02:55:45;9.50;;;6.60;;
63193;SDS011;49289;51.670;5.624;2023-03-22T02:57:33;9.60;;;7.00;;
63193;SDS011;49289;51.670;5.624;2023-03-22T02:59:21;8.80;;;6.50;;
63193;SDS011;49289;51.670;5.624;2023-03-22T03:01:08;9.00;;;6.40;;
63193;SDS011;49289;51.670;5.624;2023-03-22T03:02:55;9.70;;;6.60;;
63193;SDS011;49289;51.670;5.624;2023-03-22T03:04:44;10.10;;;6.40;;
63193;SDS011;49289;51.670;5.624;2023-03-22T03:06:33;9.70;;;6.20;;
63193;SDS011;49289;51.670;5.624;2023-03-22T03:08:20;9.60;;;6.20;;
63193;SDS011;49289;51.670;5.624;2023-03-22T03:10:08;9.10;;;6.10;;
63193;SDS011;49289;51.670;5.624;2023-03-22T03:11:57;8.80;;;5.90;;
63193;SDS011;49289;51.670;5.624;2023-03-22T03:13:45;7.30;;;5.70;;
63193;SDS011;49289;51.670;5.624;2023-03-22T03:15:33;7.70;;;6.00;;
63193;SDS011;49289;51.670;5.624;2023-03-22T03:17:28;8.30;;;5.60;;
63193;SDS011;49289;51.670;5.624;2023-03-22T03:19:16;10.90;;;5.50;;
63193;SDS011;49289;51.670;5.624;2023-03-22T03:21:03;6.70;;;5.20;;
63193;SDS011;49289;51.670;5.624;2023-03-22T03:22:55;8.90;;;5.00;;
63193;SDS011;49289;51.670;5.624;2023-03-22T03:24:43;9.30;;;5.40;;
63193;SDS011;49289;51.670;5.624;2023-03-22T03:26:32;7.00;;;4.90;;
63193;SDS011;49289;51.670;5.624;2023-03-22T03:28:21;9.00;;;5.00;;
63193;SDS011;49289;51.670;5.624;2023-03-22T03:30:08;7.00;;;4.60;;
63193;SDS011;49289;51.670;5.624;2023-03-22T03:31:55;7.40;;;4.80;;
63193;SDS011;49289;51.670;5.624;2023-03-22T03:33:43;10.40;;;5.00;;
63193;SDS011;49289;51.670;5.624;2023-03-22T03:35:30;7.50;;;4.80;;
63193;SDS011;49289;51.670;5.624;2023-03-22T03:37:18;7.70;;;4.90;;
63193;SDS011;49289;51.670;5.624;2023-03-22T03:39:06;7.20;;;4.70;;
63193;SDS011;49289;51.670;5.624;2023-03-22T03:40:54;7.00;;;4.60;;
63193;SDS011;49289;51.670;5.624;2023-03-22T03:42:42;7.50;;;4.60;;
63193;SDS011;49289;51.670;5.624;2023-03-22T03:44:29;7.80;;;4.50;;
63193;SDS011;49289;51.670;5.624;2023-03-22T03:46:17;8.80;;;5.60;;
63193;SDS011;49289;51.670;5.624;2023-03-22T03:48:06;5.90;;;4.30;;
63193;SDS011;49289;51.670;5.624;2023-03-22T03:49:53;7.10;;;4.50;;
63193;SDS011;49289;51.670;5.624;2023-03-22T03:51:50;6.60;;;4.50;;
63193;SDS011;49289;51.670;5.624;2023-03-22T03:53:37;7.30;;;4.40;;
63193;SDS011;49289;51.670;5.624;2023-03-22T03:55:25;6.20;;;4.10;;
63193;SDS011;49289;51.670;5.624;2023-03-22T03:57:13;6.50;;;4.10;;
63193;SDS011;49289;51.670;5.624;2023-03-22T03:59:01;5.50;;;4.00;;
63193;SDS011;49289;51.670;5.624;2023-03-22T04:00:49;6.70;;;4.10;;
63193;SDS011;49289;51.670;5.624;2023-03-22T04:02:38;6.20;;;3.70;;
63193;SDS011;49289;51.670;5.624;2023-03-22T04:04:26;5.20;;;4.10;;
63193;SDS011;49289;51.670;5.624;2023-03-22T04:06:13;6.10;;;3.80;;
63193;SDS011;49289;51.670;5.624;2023-03-22T04:08:00;6.70;;;3.90;;
63193;SDS011;49289;51.670;5.624;2023-03-22T04:09:47;6.90;;;4.20;;
63193;SDS011;49289;51.670;5.624;2023-03-22T04:11:34;5.90;;;3.90;;
63193;SDS011;49289;51.670;5.624;2023-03-22T04:13:21;7.10;;;4.00;;
63193;SDS011;49289;51.670;5.624;2023-03-22T04:15:09;6.80;;;3.90;;
63193;SDS011;49289;51.670;5.624;2023-03-22T04:16:57;5.30;;;3.90;;
63193;SDS011;49289;51.670;5.624;2023-03-22T04:18:45;5.80;;;3.60;;
63193;SDS011;49289;51.670;5.624;2023-03-22T04:20:33;8.80;;;4.00;;
63193;SDS011;49289;51.670;5.624;2023-03-22T04:22:21;7.20;;;4.00;;
63193;SDS011;49289;51.670;5.624;2023-03-22T04:24:09;8.10;;;3.80;;
63193;SDS011;49289;51.670;5.624;2023-03-22T04:25:56;9.10;;;4.30;;
63193;SDS011;49289;51.670;5.624;2023-03-22T04:27:45;7.20;;;4.20;;
63193;SDS011;49289;51.670;5.624;2023-03-22T04:29:33;7.50;;;4.00;;
63193;SDS011;49289;51.670;5.624;2023-03-22T04:31:20;5.90;;;3.50;;
63193;SDS011;49289;51.670;5.624;2023-03-22T04:33:08;8.30;;;4.10;;
63193;SDS011;49289;51.670;5.624;2023-03-22T04:34:55;8.70;;;3.60;;
63193;SDS011;49289;51.670;5.624;2023-03-22T04:36:43;6.70;;;3.40;;
63193;SDS011;49289;51.670;5.624;2023-03-22T04:38:30;6.70;;;3.50;;
63193;SDS011;49289;51.670;5.624;2023-03-22T04:40:19;7.20;;;3.70;;
63193;SDS011;49289;51.670;5.624;2023-03-22T04:42:06;5.20;;;3.30;;
63193;SDS011;49289;51.670;5.624;2023-03-22T04:43:54;5.50;;;3.50;;
63193;SDS011;49289;51.670;5.624;2023-03-22T04:45:42;8.50;;;3.50;;
63193;SDS011;49289;51.670;5.624;2023-03-22T04:47:29;7.70;;;4.00;;
63193;SDS011;49289;51.670;5.624;2023-03-22T04:49:17;5.60;;;3.50;;
63193;SDS011;49289;51.670;5.624;2023-03-22T04:51:04;7.60;;;3.50;;
63193;SDS011;49289;51.670;5.624;2023-03-22T04:52:52;6.90;;;3.40;;
63193;SDS011;49289;51.670;5.624;2023-03-22T04:54:39;5.20;;;3.20;;
63193;SDS011;49289;51.670;5.624;2023-03-22T04:56:26;8.10;;;3.30;;
63193;SDS011;49289;51.670;5.624;2023-03-22T04:58:14;5.90;;;3.30;;
63193;SDS011;49289;51.670;5.624;2023-03-22T05:00:03;7.00;;;3.10;;
63193;SDS011;49289;51.670;5.624;2023-03-22T05:01:52;8.00;;;3.30;;
63193;SDS011;49289;51.670;5.624;2023-03-22T05:03:40;7.90;;;3.30;;
63193;SDS011;49289;51.670;5.624;2023-03-22T05:05:29;8.80;;;3.60;;
63193;SDS011;49289;51.670;5.624;2023-03-22T05:07:17;8.40;;;3.30;;
63193;SDS011;49289;51.670;5.624;2023-03-22T05:09:05;5.40;;;3.10;;
63193;SDS011;49289;51.670;5.624;2023-03-22T05:10:53;5.90;;;3.20;;
63193;SDS011;49289;51.670;5.624;2023-03-22T05:12:40;4.20;;;2.90;;
63193;SDS011;49289;51.670;5.624;2023-03-22T05:14:28;5.50;;;3.10;;
63193;SDS011;49289;51.670;5.624;2023-03-22T05:16:15;5.40;;;3.00;;
63193;SDS011;49289;51.670;5.624;2023-03-22T05:18:02;6.30;;;3.00;;
63193;SDS011;49289;51.670;5.624;2023-03-22T05:19:49;7.70;;;3.00;;
63193;SDS011;49289;51.670;5.624;2023-03-22T05:21:38;5.60;;;2.80;;
63193;SDS011;49289;51.670;5.624;2023-03-22T05:23:27;6.00;;;3.10;;
63193;SDS011;49289;51.670;5.624;2023-03-22T05:25:14;7.20;;;3.10;;
63193;SDS011;49289;51.670;5.624;2023-03-22T05:27:01;6.50;;;2.90;;
63193;SDS011;49289;51.670;5.624;2023-03-22T05:28:48;6.10;;;3.00;;
63193;SDS011;49289;51.670;5.624;2023-03-22T05:30:35;4.50;;;2.70;;
63193;SDS011;49289;51.670;5.624;2023-03-22T05:32:22;6.00;;;2.90;;
63193;SDS011;49289;51.670;5.624;2023-03-22T05:34:09;7.40;;;3.10;;
63193;SDS011;49289;51.670;5.624;2023-03-22T05:35:56;5.10;;;2.80;;
63193;SDS011;49289;51.670;5.624;2023-03-22T05:37:44;5.80;;;2.70;;
63193;SDS011;49289;51.670;5.624;2023-03-22T05:39:32;6.20;;;2.40;;
63193;SDS011;49289;51.670;5.624;2023-03-22T05:41:20;7.80;;;2.80;;
63193;SDS011;49289;51.670;5.624;2023-03-22T05:43:08;8.30;;;2.90;;
63193;SDS011;49289;51.670;5.624;2023-03-22T05:44:57;6.20;;;2.80;;
63193;SDS011;49289;51.670;5.624;2023-03-22T05:46:45;9.10;;;2.90;;
63193;SDS011;49289;51.670;5.624;2023-03-22T05:48:33;5.60;;;2.60;;
63193;SDS011;49289;51.670;5.624;2023-03-22T05:50:21;7.10;;;2.50;;
63193;SDS011;49289;51.670;5.624;2023-03-22T05:52:09;6.10;;;2.80;;
63193;SDS011;49289;51.670;5.624;2023-03-22T05:53:57;5.70;;;2.70;;
63193;SDS011;49289;51.670;5.624;2023-03-22T05:55:44;6.30;;;3.00;;
63193;SDS011;49289;51.670;5.624;2023-03-22T05:57:32;5.30;;;2.50;;
63193;SDS011;49289;51.670;5.624;2023-03-22T05:59:20;6.60;;;2.70;;
63193;SDS011;49289;51.670;5.624;2023-03-22T06:01:10;6.00;;;2.60;;
63193;SDS011;49289;51.670;5.624;2023-03-22T06:02:56;6.50;;;2.50;;
63193;SDS011;49289;51.670;5.624;2023-03-22T06:04:43;6.30;;;3.10;;
63193;SDS011;49289;51.670;5.624;2023-03-22T06:06:30;5.50;;;2.40;;
63193;SDS011;49289;51.670;5.624;2023-03-22T06:08:17;7.00;;;2.60;;
63193;SDS011;49289;51.670;5.624;2023-03-22T06:10:04;5.60;;;2.50;;
63193;SDS011;49289;51.670;5.624;2023-03-22T06:11:53;6.10;;;2.70;;
63193;SDS011;49289;51.670;5.624;2023-03-22T06:13:41;5.70;;;2.50;;
63193;SDS011;49289;51.670;5.624;2023-03-22T06:15:29;5.60;;;2.60;;
63193;SDS011;49289;51.670;5.624;2023-03-22T06:17:17;6.40;;;2.30;;
63193;SDS011;49289;51.670;5.624;2023-03-22T06:19:04;6.20;;;2.50;;
63193;SDS011;49289;51.670;5.624;2023-03-22T06:20:51;6.70;;;2.30;;
63193;SDS011;49289;51.670;5.624;2023-03-22T06:22:38;6.00;;;2.30;;
63193;SDS011;49289;51.670;5.624;2023-03-22T06:24:25;5.50;;;2.20;;
63193;SDS011;49289;51.670;5.624;2023-03-22T06:26:13;3.20;;;2.30;;
63193;SDS011;49289;51.670;5.624;2023-03-22T06:28:59;5.00;;;2.30;;
63193;SDS011;49289;51.670;5.624;2023-03-22T06:30:46;7.80;;;2.40;;
63193;SDS011;49289;51.670;5.624;2023-03-22T06:32:33;7.60;;;2.60;;
63193;SDS011;49289;51.670;5.624;2023-03-22T06:34:20;6.30;;;2.60;;
63193;SDS011;49289;51.670;5.624;2023-03-22T06:36:07;6.70;;;2.50;;
63193;SDS011;49289;51.670;5.624;2023-03-22T06:37:56;5.60;;;2.60;;
63193;SDS011;49289;51.670;5.624;2023-03-22T06:39:44;4.90;;;2.40;;
63193;SDS011;49289;51.670;5.624;2023-03-22T06:41:32;6.50;;;2.30;;
63193;SDS011;49289;51.670;5.624;2023-03-22T06:43:20;6.50;;;2.80;;
63193;SDS011;49289;51.670;5.624;2023-03-22T06:45:07;6.10;;;2.60;;
63193;SDS011;49289;51.670;5.624;2023-03-22T06:46:55;4.20;;;2.30;;
63193;SDS011;49289;51.670;5.624;2023-03-22T06:48:42;7.00;;;2.50;;
63193;SDS011;49289;51.670;5.624;2023-03-22T06:50:29;6.80;;;2.60;;
63193;SDS011;49289;51.670;5.624;2023-03-22T06:52:01;10.90;;;2.70;;
63193;SDS011;49289;51.670;5.624;2023-03-22T06:53:48;5.30;;;2.60;;
63193;SDS011;49289;51.670;5.624;2023-03-22T06:55:35;8.50;;;2.90;;
63193;SDS011;49289;51.670;5.624;2023-03-22T06:57:22;7.90;;;2.80;;
63193;SDS011;49289;51.670;5.624;2023-03-22T06:59:09;4.90;;;2.50;;
63193;SDS011;49289;51.670;5.624;2023-03-22T07:00:56;4.70;;;2.70;;
63193;SDS011;49289;51.670;5.624;2023-03-22T07:02:43;7.80;;;2.80;;
63193;SDS011;49289;51.670;5.624;2023-03-22T07:04:30;6.60;;;3.00;;
63193;SDS011;49289;51.670;5.624;2023-03-22T07:06:17;5.60;;;2.50;;
63193;SDS011;49289;51.670;5.624;2023-03-22T07:08:04;7.90;;;3.00;;
63193;SDS011;49289;51.670;5.624;2023-03-22T07:09:51;7.10;;;2.70;;
63193;SDS011;49289;51.670;5.624;2023-03-22T07:11:38;8.30;;;3.00;;
63193;SDS011;49289;51.670;5.624;2023-03-22T07:13:26;6.80;;;2.60;;
63193;SDS011;49289;51.670;5.624;2023-03-22T07:15:14;5.20;;;2.50;;
63193;SDS011;49289;51.670;5.624;2023-03-22T07:17:01;4.70;;;2.50;;
63193;SDS011;49289;51.670;5.624;2023-03-22T07:18:48;6.10;;;2.80;;
63193;SDS011;49289;51.670;5.624;2023-03-22T07:22:22;6.40;;;3.00;;
63193;SDS011;49289;51.670;5.624;2023-03-22T07:24:09;8.10;;;2.60;;
63193;SDS011;49289;51.670;5.624;2023-03-22T07:25:58;7.70;;;2.80;;
63193;SDS011;49289;51.670;5.624;2023-03-22T07:27:44;6.20;;;2.90;;
63193;SDS011;49289;51.670;5.624;2023-03-22T07:29:31;6.60;;;2.90;;
63193;SDS011;49289;51.670;5.624;2023-03-22T07:31:18;8.60;;;3.10;;
63193;SDS011;49289;51.670;5.624;2023-03-22T07:33:06;10.30;;;3.10;;
63193;SDS011;49289;51.670;5.624;2023-03-22T07:34:52;8.10;;;2.80;;
63193;SDS011;49289;51.670;5.624;2023-03-22T07:36:39;5.30;;;2.70;;
63193;SDS011;49289;51.670;5.624;2023-03-22T07:38:26;5.50;;;2.70;;
63193;SDS011;49289;51.670;5.624;2023-03-22T07:40:14;6.60;;;2.80;;
63193;SDS011;49289;51.670;5.624;2023-03-22T07:42:02;7.50;;;2.70;;
63193;SDS011;49289;51.670;5.624;2023-03-22T07:43:49;5.40;;;3.00;;
63193;SDS011;49289;51.670;5.624;2023-03-22T07:45:36;7.20;;;2.90;;
63193;SDS011;49289;51.670;5.624;2023-03-22T07:47:23;5.60;;;3.00;;
63193;SDS011;49289;51.670;5.624;2023-03-22T07:49:10;7.80;;;2.90;;
63193;SDS011;49289;51.670;5.624;2023-03-22T07:50:59;9.20;;;3.00;;
63193;SDS011;49289;51.670;5.624;2023-03-22T07:52:46;7.10;;;2.70;;
63193;SDS011;49289;51.670;5.624;2023-03-22T07:54:33;9.60;;;3.20;;
63193;SDS011;49289;51.670;5.624;2023-03-22T07:56:20;6.80;;;3.20;;
63193;SDS011;49289;51.670;5.624;2023-03-22T07:58:07;7.50;;;3.10;;
63193;SDS011;49289;51.670;5.624;2023-03-22T07:59:54;7.30;;;3.00;;
63193;SDS011;49289;51.670;5.624;2023-03-22T08:01:41;5.70;;;3.10;;
63193;SDS011;49289;51.670;5.624;2023-03-22T08:03:29;6.10;;;3.30;;
63193;SDS011;49289;51.670;5.624;2023-03-22T08:05:17;7.10;;;3.10;;
63193;SDS011;49289;51.670;5.624;2023-03-22T08:07:06;7.00;;;3.40;;
63193;SDS011;49289;51.670;5.624;2023-03-22T08:08:54;11.40;;;4.10;;
63193;SDS011;49289;51.670;5.624;2023-03-22T08:10:42;7.50;;;3.30;;
63193;SDS011;49289;51.670;5.624;2023-03-22T08:12:33;9.20;;;3.40;;
63193;SDS011;49289;51.670;5.624;2023-03-22T08:14:22;7.50;;;3.10;;
63193;SDS011;49289;51.670;5.624;2023-03-22T08:16:10;8.10;;;3.30;;
63193;SDS011;49289;51.670;5.624;2023-03-22T08:17:57;6.30;;;3.00;;
63193;SDS011;49289;51.670;5.624;2023-03-22T08:19:44;6.60;;;2.80;;
63193;SDS011;49289;51.670;5.624;2023-03-22T08:21:32;6.80;;;3.00;;
63193;SDS011;49289;51.670;5.624;2023-03-22T08:23:20;4.00;;;2.60;;
63193;SDS011;49289;51.670;5.624;2023-03-22T08:25:09;6.50;;;2.70;;
63193;SDS011;49289;51.670;5.624;2023-03-22T08:26:57;7.30;;;2.50;;
63193;SDS011;49289;51.670;5.624;2023-03-22T08:28:44;5.40;;;2.30;;
63193;SDS011;49289;51.670;5.624;2023-03-22T08:30:31;7.40;;;2.60;;
63193;SDS011;49289;51.670;5.624;2023-03-22T08:32:18;6.20;;;2.20;;
63193;SDS011;49289;51.670;5.624;2023-03-22T08:34:05;5.50;;;2.00;;
63193;SDS011;49289;51.670;5.624;2023-03-22T08:36:02;5.90;;;2.10;;
63193;SDS011;49289;51.670;5.624;2023-03-22T08:37:49;5.60;;;2.20;;
63193;SDS011;49289;51.670;5.624;2023-03-22T08:39:38;5.60;;;2.30;;
63193;SDS011;49289;51.670;5.624;2023-03-22T08:41:26;6.50;;;2.20;;
63193;SDS011;49289;51.670;5.624;2023-03-22T08:43:15;6.40;;;2.30;;
63193;SDS011;49289;51.670;5.624;2023-03-22T08:45:02;6.10;;;2.50;;
63193;SDS011;49289;51.670;5.624;2023-03-22T08:46:50;5.80;;;2.30;;
63193;SDS011;49289;51.670;5.624;2023-03-22T08:48:37;6.20;;;2.10;;
63193;SDS011;49289;51.670;5.624;2023-03-22T08:50:26;6.80;;;2.10;;
63193;SDS011;49289;51.670;5.624;2023-03-22T08:52:14;6.10;;;2.00;;
63193;SDS011;49289;51.670;5.624;2023-03-22T08:54:02;4.40;;;2.20;;
63193;SDS011;49289;51.670;5.624;2023-03-22T08:55:51;7.10;;;2.30;;
63193;SDS011;49289;51.670;5.624;2023-03-22T08:57:39;5.70;;;2.10;;
63193;SDS011;49289;51.670;5.624;2023-03-22T08:59:27;8.50;;;2.20;;
63193;SDS011;49289;51.670;5.624;2023-03-22T09:01:16;6.20;;;2.00;;
63193;SDS011;49289;51.670;5.624;2023-03-22T09:03:03;5.10;;;1.80;;
63193;SDS011;49289;51.670;5.624;2023-03-22T09:04:50;7.00;;;2.00;;
63193;SDS011;49289;51.670;5.624;2023-03-22T09:06:39;7.50;;;2.10;;
63193;SDS011;49289;51.670;5.624;2023-03-22T09:08:27;4.40;;;1.90;;
63193;SDS011;49289;51.670;5.624;2023-03-22T09:10:15;4.40;;;1.80;;
63193;SDS011;49289;51.670;5.624;2023-03-22T09:12:02;7.60;;;2.30;;
63193;SDS011;49289;51.670;5.624;2023-03-22T09:13:49;7.30;;;2.40;;
63193;SDS011;49289;51.670;5.624;2023-03-22T09:15:37;5.70;;;2.00;;
63193;SDS011;49289;51.670;5.624;2023-03-22T09:17:25;6.50;;;1.90;;
63193;SDS011;49289;51.670;5.624;2023-03-22T09:19:13;7.90;;;2.10;;
63193;SDS011;49289;51.670;5.624;2023-03-22T09:21:01;4.80;;;1.70;;
63193;SDS011;49289;51.670;5.624;2023-03-22T09:22:49;5.30;;;1.80;;
63193;SDS011;49289;51.670;5.624;2023-03-22T09:24:36;7.30;;;1.90;;
63193;SDS011;49289;51.670;5.624;2023-03-22T09:26:23;5.80;;;1.70;;
63193;SDS011;49289;51.670;5.624;2023-03-22T09:28:10;6.20;;;1.90;;
63193;SDS011;49289;51.670;5.624;2023-03-22T09:29:57;3.80;;;1.80;;
63193;SDS011;49289;51.670;5.624;2023-03-22T09:31:44;6.60;;;1.80;;
63193;SDS011;49289;51.670;5.624;2023-03-22T09:33:33;4.10;;;1.70;;
63193;SDS011;49289;51.670;5.624;2023-03-22T09:35:21;6.00;;;2.00;;
63193;SDS011;49289;51.670;5.624;2023-03-22T09:37:08;3.00;;;1.40;;
63193;SDS011;49289;51.670;5.624;2023-03-22T09:38:56;5.70;;;1.90;;
63193;SDS011;49289;51.670;5.624;2023-03-22T09:40:48;11.00;;;2.10;;
63193;SDS011;49289;51.670;5.624;2023-03-22T09:42:37;6.70;;;2.10;;
63193;SDS011;49289;51.670;5.624;2023-03-22T09:44:24;5.40;;;1.60;;
63193;SDS011;49289;51.670;5.624;2023-03-22T09:46:12;5.30;;;1.70;;
63193;SDS011;49289;51.670;5.624;2023-03-22T09:48:00;6.90;;;2.00;;
63193;SDS011;49289;51.670;5.624;2023-03-22T09:49:47;8.70;;;1.70;;
63193;SDS011;49289;51.670;5.624;2023-03-22T09:51:36;4.60;;;1.70;;
63193;SDS011;49289;51.670;5.624;2023-03-22T09:53:24;3.40;;;1.60;;
63193;SDS011;49289;51.670;5.624;2023-03-22T09:55:16;5.10;;;1.70;;
63193;SDS011;49289;51.670;5.624;2023-03-22T09:57:06;7.20;;;1.80;;
63193;SDS011;49289;51.670;5.624;2023-03-22T09:58:53;4.50;;;1.50;;
63193;SDS011;49289;51.670;5.624;2023-03-22T10:00:42;5.10;;;1.70;;
63193;SDS011;49289;51.670;5.624;2023-03-22T10:02:38;6.40;;;2.10;;
63193;SDS011;49289;51.670;5.624;2023-03-22T10:06:28;5.70;;;1.40;;
63193;SDS011;49289;51.670;5.624;2023-03-22T10:08:27;6.30;;;1.60;;
63193;SDS011;49289;51.670;5.624;2023-03-22T10:10:27;5.50;;;1.80;;
63193;SDS011;49289;51.670;5.624;2023-03-22T10:12:15;4.50;;;1.50;;
63193;SDS011;49289;51.670;5.624;2023-03-22T10:14:05;8.50;;;1.90;;
63193;SDS011;49289;51.670;5.624;2023-03-22T10:15:51;6.50;;;1.70;;
63193;SDS011;49289;51.670;5.624;2023-03-22T10:17:38;4.00;;;1.60;;
63193;SDS011;49289;51.670;5.624;2023-03-22T10:19:28;6.60;;;1.80;;
63193;SDS011;49289;51.670;5.624;2023-03-22T10:21:16;9.80;;;1.70;;
63193;SDS011;49289;51.670;5.624;2023-03-22T10:23:04;4.60;;;1.60;;
63193;SDS011;49289;51.670;5.624;2023-03-22T10:24:52;7.30;;;1.60;;
63193;SDS011;49289;51.670;5.624;2023-03-22T10:26:41;7.90;;;1.90;;
63193;SDS011;49289;51.670;5.624;2023-03-22T10:28:28;4.80;;;1.70;;
63193;SDS011;49289;51.670;5.624;2023-03-22T10:30:21;4.50;;;1.50;;
63193;SDS011;49289;51.670;5.624;2023-03-22T10:32:13;3.60;;;1.40;;
63193;SDS011;49289;51.670;5.624;2023-03-22T10:34:01;9.00;;;1.90;;
63193;SDS011;49289;51.670;5.624;2023-03-22T10:35:48;6.60;;;1.90;;
63193;SDS011;49289;51.670;5.624;2023-03-22T10:37:35;7.30;;;1.70;;
63193;SDS011;49289;51.670;5.624;2023-03-22T10:39:24;8.00;;;1.90;;
63193;SDS011;49289;51.670;5.624;2023-03-22T10:41:13;6.90;;;1.90;;
63193;SDS011;49289;51.670;5.624;2023-03-22T10:43:01;6.70;;;1.70;;
63193;SDS011;49289;51.670;5.624;2023-03-22T10:44:49;5.90;;;1.50;;
63193;SDS011;49289;51.670;5.624;2023-03-22T10:46:37;6.60;;;2.00;;
63193;SDS011;49289;51.670;5.624;2023-03-22T10:48:24;6.30;;;1.70;;
63193;SDS011;49289;51.670;5.624;2023-03-22T10:50:12;4.80;;;1.80;;
63193;SDS011;49289;51.670;5.624;2023-03-22T10:52:01;8.30;;;1.90;;
63193;SDS011;49289;51.670;5.624;2023-03-22T10:53:47;5.10;;;1.80;;
63193;SDS011;49289;51.670;5.624;2023-03-22T10:55:36;3.90;;;2.10;;
63193;SDS011;49289;51.670;5.624;2023-03-22T10:57:23;6.00;;;2.10;;
63193;SDS011;49289;51.670;5.624;2023-03-22T10:59:10;5.80;;;2.00;;
63193;SDS011;49289;51.670;5.624;2023-03-22T11:01:12;5.30;;;1.90;;
63193;SDS011;49289;51.670;5.624;2023-03-22T11:03:03;7.40;;;1.90;;